sensor_id;sensor_type;location;lat;lon;timestamp;pressure;altitude;pressure_sealevel;temperature;humidity
66176;BME280;52977;44.816;20.538;2023-04-15T00:01:29;98733.63;;;10.42;75.06
66176;BME280;52977;44.816;20.538;2023-04-15T00:03:58;98791.59;;;10.92;73.56
66176;BME280;52977;44.816;20.538;2023-04-15T00:06:24;98776.06;;;11.08;71.93
66176;BME280;52977;44.816;20.538;2023-04-15T00:08:51;98776.25;;;11.16;71.41
66176;BME280;52977;44.816;20.538;2023-04-15T00:11:17;98754.16;;;10.92;70.58
66176;BME280;52977;44.816;20.538;2023-04-15T00:13:43;98757.44;;;10.98;70.19
66176;BME280;52977;44.816;20.538;2023-04-15T00:16:09;98745.19;;;10.92;70.46
66176;BME280;52977;44.816;20.538;2023-04-15T00:18:36;98771.69;;;11.20;69.84
66176;BME280;52977;44.816;20.538;2023-04-15T00:21:02;98753.50;;;11.11;68.03
66176;BME280;52977;44.816;20.538;2023-04-15T00:23:29;98690.97;;;10.78;67.50
66176;BME280;52977;44.816;20.538;2023-04-15T00:25:55;98721.97;;;10.98;66.13
66176;BME280;52977;44.816;20.538;2023-04-15T00:28:21;98788.19;;;11.39;66.25
66176;BME280;52977;44.816;20.538;2023-04-15T00:30:46;98753.44;;;11.24;65.50
66176;BME280;52977;44.816;20.538;2023-04-15T00:33:13;98772.75;;;11.31;66.33
66176;BME280;52977;44.816;20.538;2023-04-15T00:35:41;98793.50;;;11.48;66.03
66176;BME280;52977;44.816;20.538;2023-04-15T00:38:07;98753.88;;;11.26;66.47
66176;BME280;52977;44.816;20.538;2023-04-15T00:40:33;98770.16;;;11.51;65.62
66176;BME280;52977;44.816;20.538;2023-04-15T00:43:00;98760.88;;;11.23;65.11
66176;BME280;52977;44.816;20.538;2023-04-15T00:45:25;98758.13;;;11.23;64.06
66176;BME280;52977;44.816;20.538;2023-04-15T00:47:54;98740.78;;;11.03;63.12
66176;BME280;52977;44.816;20.538;2023-04-15T00:50:28;98804.09;;;10.93;66.25
66176;BME280;52977;44.816;20.538;2023-04-15T00:52:54;98798.63;;;10.52;74.89
66176;BME280;52977;44.816;20.538;2023-04-15T00:55:21;98796.94;;;10.35;75.46
66176;BME280;52977;44.816;20.538;2023-04-15T00:57:47;98761.47;;;9.98;75.96
66176;BME280;52977;44.816;20.538;2023-04-15T01:00:13;98754.44;;;9.85;74.61
66176;BME280;52977;44.816;20.538;2023-04-15T01:02:39;98770.44;;;10.23;73.48
66176;BME280;52977;44.816;20.538;2023-04-15T01:05:05;98792.81;;;10.66;72.21
66176;BME280;52977;44.816;20.538;2023-04-15T01:07:32;98774.84;;;10.65;72.03
66176;BME280;52977;44.816;20.538;2023-04-15T01:09:57;98799.66;;;10.88;70.15
66176;BME280;52977;44.816;20.538;2023-04-15T01:12:25;98760.69;;;10.75;66.23
66176;BME280;52977;44.816;20.538;2023-04-15T01:14:55;98755.56;;;10.86;63.32
66176;BME280;52977;44.816;20.538;2023-04-15T01:17:23;98760.25;;;11.02;61.90
66176;BME280;52977;44.816;20.538;2023-04-15T01:19:49;98763.09;;;11.05;61.35
66176;BME280;52977;44.816;20.538;2023-04-15T01:22:15;98779.19;;;11.23;60.12
66176;BME280;52977;44.816;20.538;2023-04-15T01:24:53;98801.88;;;11.39;59.42
66176;BME280;52977;44.816;20.538;2023-04-15T01:27:20;98791.13;;;11.46;58.85
66176;BME280;52977;44.816;20.538;2023-04-15T01:29:46;98794.31;;;11.49;58.50
66176;BME280;52977;44.816;20.538;2023-04-15T01:32:11;98792.00;;;11.51;58.29
66176;BME280;52977;44.816;20.538;2023-04-15T01:34:37;98801.81;;;11.52;57.90
66176;BME280;52977;44.816;20.538;2023-04-15T01:37:02;98730.88;;;11.11;57.64
66176;BME280;52977;44.816;20.538;2023-04-15T01:39:28;98796.41;;;11.55;57.48
66176;BME280;52977;44.816;20.538;2023-04-15T01:41:55;98761.41;;;11.29;57.19
66176;BME280;52977;44.816;20.538;2023-04-15T01:44:23;98734.16;;;11.17;57.16
66176;BME280;52977;44.816;20.538;2023-04-15T01:46:49;98734.94;;;11.17;57.05
66176;BME280;52977;44.816;20.538;2023-04-15T01:49:15;98799.97;;;11.56;56.77
66176;BME280;52977;44.816;20.538;2023-04-15T01:51:41;98811.50;;;11.65;56.64
66176;BME280;52977;44.816;20.538;2023-04-15T01:54:07;98734.94;;;11.17;56.41
66176;BME280;52977;44.816;20.538;2023-04-15T01:56:34;98817.31;;;11.63;56.68
66176;BME280;52977;44.816;20.538;2023-04-15T01:59:02;98812.13;;;11.58;56.70
66176;BME280;52977;44.816;20.538;2023-04-15T02:01:28;98814.88;;;11.58;56.45
66176;BME280;52977;44.816;20.538;2023-04-15T02:03:57;98772.06;;;11.34;56.64
66176;BME280;52977;44.816;20.538;2023-04-15T02:06:24;98768.53;;;11.34;56.35
66176;BME280;52977;44.816;20.538;2023-04-15T02:08:50;98820.88;;;11.64;56.21
66176;BME280;52977;44.816;20.538;2023-04-15T02:11:16;98822.44;;;11.65;56.34
66176;BME280;52977;44.816;20.538;2023-04-15T02:13:43;98800.31;;;11.54;56.17
66176;BME280;52977;44.816;20.538;2023-04-15T02:16:18;98780.53;;;11.29;56.51
66176;BME280;52977;44.816;20.538;2023-04-15T02:18:45;98811.31;;;11.58;56.17
66176;BME280;52977;44.816;20.538;2023-04-15T02:21:12;98801.03;;;11.51;56.02
66176;BME280;52977;44.816;20.538;2023-04-15T02:23:38;98773.66;;;11.35;56.17
66176;BME280;52977;44.816;20.538;2023-04-15T02:26:04;98806.56;;;11.55;55.99
66176;BME280;52977;44.816;20.538;2023-04-15T02:28:31;98816.91;;;11.61;56.25
66176;BME280;52977;44.816;20.538;2023-04-15T02:30:57;98754.78;;;11.30;56.00
66176;BME280;52977;44.816;20.538;2023-04-15T02:33:24;98803.47;;;11.56;55.94
66176;BME280;52977;44.816;20.538;2023-04-15T02:35:51;98764.31;;;11.36;56.06
66176;BME280;52977;44.816;20.538;2023-04-15T02:38:18;98800.03;;;11.59;56.08
66176;BME280;52977;44.816;20.538;2023-04-15T02:40:44;98755.66;;;11.34;56.24
66176;BME280;52977;44.816;20.538;2023-04-15T02:43:11;98731.75;;;11.15;56.50
66176;BME280;52977;44.816;20.538;2023-04-15T02:45:37;98796.00;;;11.53;56.16
66176;BME280;52977;44.816;20.538;2023-04-15T02:48:04;98769.53;;;11.41;55.87
66176;BME280;52977;44.816;20.538;2023-04-15T02:50:31;98791.66;;;11.52;56.26
66176;BME280;52977;44.816;20.538;2023-04-15T02:52:56;98791.66;;;11.52;55.88
66176;BME280;52977;44.816;20.538;2023-04-15T02:55:22;98764.81;;;11.26;55.58
66176;BME280;52977;44.816;20.538;2023-04-15T02:57:48;98732.44;;;11.12;55.86
66176;BME280;52977;44.816;20.538;2023-04-15T03:00:14;98775.13;;;11.33;55.92
66176;BME280;52977;44.816;20.538;2023-04-15T03:02:44;98737.19;;;10.71;57.42
66176;BME280;52977;44.816;20.538;2023-04-15T03:05:12;98796.38;;;10.42;60.91
66176;BME280;52977;44.816;20.538;2023-04-15T03:07:42;98812.16;;;10.61;60.27
66176;BME280;52977;44.816;20.538;2023-04-15T03:10:08;98796.13;;;10.22;61.04
66176;BME280;52977;44.816;20.538;2023-04-15T03:12:36;98719.91;;;9.77;60.94
66176;BME280;52977;44.816;20.538;2023-04-15T03:15:02;98807.75;;;10.44;62.84
66176;BME280;52977;44.816;20.538;2023-04-15T03:17:34;98810.22;;;10.24;64.61
66176;BME280;52977;44.816;20.538;2023-04-15T03:20:05;98817.59;;;10.12;65.74
66176;BME280;52977;44.816;20.538;2023-04-15T03:22:31;98829.41;;;9.91;67.89
66176;BME280;52977;44.816;20.538;2023-04-15T03:24:57;98824.22;;;10.23;66.83
66176;BME280;52977;44.816;20.538;2023-04-15T03:27:23;98790.78;;;10.01;66.53
66176;BME280;52977;44.816;20.538;2023-04-15T03:29:49;98810.78;;;10.30;66.43
66176;BME280;52977;44.816;20.538;2023-04-15T03:32:17;98820.69;;;10.47;65.42
66176;BME280;52977;44.816;20.538;2023-04-15T03:34:43;98834.88;;;10.65;65.29
66176;BME280;52977;44.816;20.538;2023-04-15T03:37:09;98772.03;;;10.24;64.67
66176;BME280;52977;44.816;20.538;2023-04-15T03:39:35;98737.16;;;9.93;63.69
66176;BME280;52977;44.816;20.538;2023-04-15T03:42:01;98833.31;;;10.27;63.71
66176;BME280;52977;44.816;20.538;2023-04-15T03:44:29;98787.25;;;9.76;63.22
66176;BME280;52977;44.816;20.538;2023-04-15T03:46:55;98850.66;;;10.10;63.14
66176;BME280;52977;44.816;20.538;2023-04-15T03:49:21;98850.31;;;9.99;63.51
66176;BME280;52977;44.816;20.538;2023-04-15T03:51:48;98856.81;;;10.19;63.26
66176;BME280;52977;44.816;20.538;2023-04-15T03:54:14;98782.16;;;9.99;62.07
66176;BME280;52977;44.816;20.538;2023-04-15T03:56:40;98796.13;;;10.22;61.14
66176;BME280;52977;44.816;20.538;2023-04-15T03:59:06;98809.66;;;10.31;60.04
66176;BME280;52977;44.816;20.538;2023-04-15T04:01:32;98842.94;;;10.74;59.25
66176;BME280;52977;44.816;20.538;2023-04-15T04:03:58;98852.59;;;10.84;58.58
66176;BME280;52977;44.816;20.538;2023-04-15T04:06:25;98822.50;;;10.68;58.15
66176;BME280;52977;44.816;20.538;2023-04-15T04:08:51;98828.84;;;10.72;57.53
66176;BME280;52977;44.816;20.538;2023-04-15T04:11:17;98879.25;;;11.15;56.74
66176;BME280;52977;44.816;20.538;2023-04-15T04:13:43;98888.94;;;11.13;56.90
66176;BME280;52977;44.816;20.538;2023-04-15T04:16:09;98798.63;;;10.52;57.24
66176;BME280;52977;44.816;20.538;2023-04-15T04:18:36;98897.56;;;11.15;56.86
66176;BME280;52977;44.816;20.538;2023-04-15T04:21:02;98892.09;;;11.15;56.51
66176;BME280;52977;44.816;20.538;2023-04-15T04:23:28;98876.41;;;11.11;56.76
66176;BME280;52977;44.816;20.538;2023-04-15T04:25:54;98865.72;;;11.06;56.18
66176;BME280;52977;44.816;20.538;2023-04-15T04:28:20;98807.25;;;10.67;56.11
66176;BME280;52977;44.816;20.538;2023-04-15T04:30:46;98833.59;;;10.87;56.10
66176;BME280;52977;44.816;20.538;2023-04-15T04:33:12;98841.63;;;10.96;55.99
66176;BME280;52977;44.816;20.538;2023-04-15T04:35:38;98857.22;;;11.08;55.89
66176;BME280;52977;44.816;20.538;2023-04-15T04:38:04;98844.38;;;10.96;56.08
66176;BME280;52977;44.816;20.538;2023-04-15T04:40:30;98787.59;;;10.61;55.84
66176;BME280;52977;44.816;20.538;2023-04-15T04:42:57;98909.47;;;11.35;55.75
66176;BME280;52977;44.816;20.538;2023-04-15T04:45:23;98908.22;;;11.32;55.87
66176;BME280;52977;44.816;20.538;2023-04-15T04:47:49;98893.28;;;11.14;55.64
66176;BME280;52977;44.816;20.538;2023-04-15T04:50:15;98889.03;;;11.16;55.63
66176;BME280;52977;44.816;20.538;2023-04-15T04:52:41;98907.09;;;11.33;55.57
66176;BME280;52977;44.816;20.538;2023-04-15T04:55:07;98876.66;;;11.06;55.53
66176;BME280;52977;44.816;20.538;2023-04-15T04:57:34;98869.50;;;11.02;55.62
66176;BME280;52977;44.816;20.538;2023-04-15T05:00:05;98892.66;;;11.20;55.04
66176;BME280;52977;44.816;20.538;2023-04-15T05:02:33;98881.88;;;11.11;55.28
66176;BME280;52977;44.816;20.538;2023-04-15T05:04:59;98896.28;;;11.24;55.16
66176;BME280;52977;44.816;20.538;2023-04-15T05:07:26;98914.78;;;11.43;55.36
66176;BME280;52977;44.816;20.538;2023-04-15T05:09:52;98918.88;;;11.50;54.89
66176;BME280;52977;44.816;20.538;2023-04-15T05:12:18;98876.31;;;11.08;54.52
66176;BME280;52977;44.816;20.538;2023-04-15T05:14:44;98877.97;;;11.25;54.97
66176;BME280;52977;44.816;20.538;2023-04-15T05:17:11;98900.69;;;11.41;54.49
66176;BME280;52977;44.816;20.538;2023-04-15T05:19:37;98856.16;;;11.13;54.62
66176;BME280;52977;44.816;20.538;2023-04-15T05:22:03;98923.38;;;11.58;54.73
66176;BME280;52977;44.816;20.538;2023-04-15T05:24:30;98913.06;;;11.51;54.49
66176;BME280;52977;44.816;20.538;2023-04-15T05:26:56;98897.16;;;11.41;54.71
66176;BME280;52977;44.816;20.538;2023-04-15T05:29:22;98811.84;;;10.91;54.54
66176;BME280;52977;44.816;20.538;2023-04-15T05:31:48;98913.81;;;11.64;54.77
66176;BME280;52977;44.816;20.538;2023-04-15T05:34:14;98856.47;;;11.23;54.80
66176;BME280;52977;44.816;20.538;2023-04-15T05:36:42;98860.09;;;11.27;54.20
66176;BME280;52977;44.816;20.538;2023-04-15T05:39:08;98911.03;;;11.76;54.12
66176;BME280;52977;44.816;20.538;2023-04-15T05:41:34;98921.59;;;11.78;53.86
66176;BME280;52977;44.816;20.538;2023-04-15T05:44:00;98865.72;;;11.47;54.07
66176;BME280;52977;44.816;20.538;2023-04-15T05:46:26;98925.44;;;11.89;53.90
66176;BME280;52977;44.816;20.538;2023-04-15T05:48:53;98925.06;;;11.91;53.70
66176;BME280;52977;44.816;20.538;2023-04-15T05:51:18;98755.00;;;10.81;53.56
66176;BME280;52977;44.816;20.538;2023-04-15T05:53:44;98929.88;;;11.94;53.77
66176;BME280;52977;44.816;20.538;2023-04-15T05:56:10;98897.44;;;11.80;53.84
66176;BME280;52977;44.816;20.538;2023-04-15T05:58:36;98858.97;;;11.57;53.19
66176;BME280;52977;44.816;20.538;2023-04-15T06:01:02;98894.44;;;11.85;53.54
66176;BME280;52977;44.816;20.538;2023-04-15T06:03:28;98911.53;;;11.94;53.28
66176;BME280;52977;44.816;20.538;2023-04-15T06:05:53;98893.03;;;11.91;53.22
66176;BME280;52977;44.816;20.538;2023-04-15T06:08:19;98898.94;;;12.06;53.01
66176;BME280;52977;44.816;20.538;2023-04-15T06:10:45;98899.72;;;12.06;53.51
66176;BME280;52977;44.816;20.538;2023-04-15T06:13:11;98852.91;;;11.79;53.83
66176;BME280;52977;44.816;20.538;2023-04-15T06:15:37;98909.34;;;12.16;53.73
66176;BME280;52977;44.816;20.538;2023-04-15T06:18:03;98918.97;;;12.26;53.56
66176;BME280;52977;44.816;20.538;2023-04-15T06:20:28;98888.06;;;12.09;53.59
66176;BME280;52977;44.816;20.538;2023-04-15T06:22:54;98909.81;;;12.18;53.57
66176;BME280;52977;44.816;20.538;2023-04-15T06:25:19;98930.25;;;12.40;53.29
66176;BME280;52977;44.816;20.538;2023-04-15T06:27:45;98892.31;;;12.23;53.47
66176;BME280;52977;44.816;20.538;2023-04-15T06:30:11;98896.38;;;12.29;53.31
66176;BME280;52977;44.816;20.538;2023-04-15T06:32:37;98924.44;;;12.58;53.42
66176;BME280;52977;44.816;20.538;2023-04-15T06:35:02;98925.16;;;12.55;53.49
66176;BME280;52977;44.816;20.538;2023-04-15T06:37:28;98903.09;;;12.47;54.05
66176;BME280;52977;44.816;20.538;2023-04-15T06:39:54;98872.97;;;12.31;53.87
66176;BME280;52977;44.816;20.538;2023-04-15T06:42:19;98854.00;;;12.23;54.17
66176;BME280;52977;44.816;20.538;2023-04-15T06:44:46;98876.41;;;12.44;54.17
66176;BME280;52977;44.816;20.538;2023-04-15T06:47:12;98872.00;;;12.40;54.20
66176;BME280;52977;44.816;20.538;2023-04-15T06:49:39;98912.59;;;12.70;53.99
66176;BME280;52977;44.816;20.538;2023-04-15T06:52:05;98902.97;;;12.76;53.56
66176;BME280;52977;44.816;20.538;2023-04-15T06:54:31;98900.59;;;12.74;53.73
66176;BME280;52977;44.816;20.538;2023-04-15T06:56:57;98875.59;;;12.60;53.08
66176;BME280;52977;44.816;20.538;2023-04-15T06:59:23;98894.22;;;12.70;52.89
66176;BME280;52977;44.816;20.538;2023-04-15T07:01:49;98914.94;;;12.87;53.46
66176;BME280;52977;44.816;20.538;2023-04-15T07:04:16;98814.91;;;12.22;53.53
66176;BME280;52977;44.816;20.538;2023-04-15T07:06:42;98913.69;;;13.01;52.22
66176;BME280;52977;44.816;20.538;2023-04-15T07:09:08;98896.56;;;12.88;52.38
66176;BME280;52977;44.816;20.538;2023-04-15T07:11:35;98851.13;;;12.67;52.68
66176;BME280;52977;44.816;20.538;2023-04-15T07:14:01;98892.19;;;13.03;52.33
66176;BME280;52977;44.816;20.538;2023-04-15T07:16:28;98851.34;;;12.78;52.98
66176;BME280;52977;44.816;20.538;2023-04-15T07:18:54;98912.03;;;13.15;52.21
66176;BME280;52977;44.816;20.538;2023-04-15T07:21:20;98907.06;;;13.21;51.58
66176;BME280;52977;44.816;20.538;2023-04-15T07:23:47;98913.41;;;13.25;51.14
66176;BME280;52977;44.816;20.538;2023-04-15T07:26:13;98913.41;;;13.25;51.14
66176;BME280;52977;44.816;20.538;2023-04-15T07:28:39;98939.63;;;13.42;51.30
66176;BME280;52977;44.816;20.538;2023-04-15T07:31:05;98934.69;;;13.48;50.92
66176;BME280;52977;44.816;20.538;2023-04-15T07:33:31;98847.72;;;12.90;50.68
66176;BME280;52977;44.816;20.538;2023-04-15T07:35:57;98943.69;;;13.48;50.88
66176;BME280;52977;44.816;20.538;2023-04-15T07:38:24;98931.13;;;13.47;50.62
66176;BME280;52977;44.816;20.538;2023-04-15T07:40:50;98935.84;;;13.47;50.96
66176;BME280;52977;44.816;20.538;2023-04-15T07:43:17;98935.38;;;13.45;51.35
66176;BME280;52977;44.816;20.538;2023-04-15T07:45:43;98908.75;;;13.26;51.23
66176;BME280;52977;44.816;20.538;2023-04-15T07:48:09;98935.03;;;13.46;50.63
66176;BME280;52977;44.816;20.538;2023-04-15T07:50:36;98882.63;;;13.12;50.65
66176;BME280;52977;44.816;20.538;2023-04-15T07:53:02;98810.28;;;12.78;50.07
66176;BME280;52977;44.816;20.538;2023-04-15T07:55:29;98847.94;;;13.01;50.53
66176;BME280;52977;44.816;20.538;2023-04-15T07:57:55;98928.03;;;13.49;50.46
66176;BME280;52977;44.816;20.538;2023-04-15T08:00:21;98847.84;;;12.97;50.78
66176;BME280;52977;44.816;20.538;2023-04-15T08:02:48;98929.84;;;13.61;50.11
66176;BME280;52977;44.816;20.538;2023-04-15T08:05:14;98952.72;;;13.68;50.54
66176;BME280;52977;44.816;20.538;2023-04-15T08:07:40;98912.81;;;13.71;50.61
66176;BME280;52977;44.816;20.538;2023-04-15T08:10:06;98917.56;;;13.74;50.09
66176;BME280;52977;44.816;20.538;2023-04-15T08:12:32;98815.22;;;13.08;50.30
66176;BME280;52977;44.816;20.538;2023-04-15T08:14:57;98918.13;;;13.83;50.24
66176;BME280;52977;44.816;20.538;2023-04-15T08:17:23;98874.06;;;13.53;50.21
66176;BME280;52977;44.816;20.538;2023-04-15T08:19:49;98931.41;;;14.01;49.58
66176;BME280;52977;44.816;20.538;2023-04-15T08:22:15;98912.00;;;13.90;49.08
66176;BME280;52977;44.816;20.538;2023-04-15T08:24:41;98890.09;;;13.71;49.88
66176;BME280;52977;44.816;20.538;2023-04-15T08:27:07;98885.16;;;13.60;49.89
66176;BME280;52977;44.816;20.538;2023-04-15T08:29:33;98832.16;;;13.33;49.70
66176;BME280;52977;44.816;20.538;2023-04-15T08:32:00;98944.75;;;14.02;49.91
66176;BME280;52977;44.816;20.538;2023-04-15T08:34:27;98924.63;;;13.95;48.96
66176;BME280;52977;44.816;20.538;2023-04-15T08:36:53;98948.41;;;14.10;48.54
66176;BME280;52977;44.816;20.538;2023-04-15T08:39:19;98934.69;;;14.10;48.38
66176;BME280;52977;44.816;20.538;2023-04-15T08:41:59;98882.22;;;13.69;48.50
66176;BME280;52977;44.816;20.538;2023-04-15T08:44:29;98940.38;;;14.21;48.33
66176;BME280;52977;44.816;20.538;2023-04-15T08:47:01;98913.22;;;13.93;48.90
66176;BME280;52977;44.816;20.538;2023-04-15T08:49:28;98923.34;;;14.12;48.20
66176;BME280;52977;44.816;20.538;2023-04-15T08:51:55;98949.50;;;14.29;48.03
66176;BME280;52977;44.816;20.538;2023-04-15T08:54:23;98883.75;;;13.90;48.39
66176;BME280;52977;44.816;20.538;2023-04-15T08:56:51;98789.97;;;13.38;48.53
66176;BME280;52977;44.816;20.538;2023-04-15T08:59:18;98953.56;;;14.35;48.21
66176;BME280;52977;44.816;20.538;2023-04-15T09:01:46;98960.56;;;14.32;47.75
66176;BME280;52977;44.816;20.538;2023-04-15T09:04:13;98949.34;;;14.41;46.64
66176;BME280;52977;44.816;20.538;2023-04-15T09:06:39;98953.50;;;14.55;46.13
66176;BME280;52977;44.816;20.538;2023-04-15T09:09:06;98858.47;;;14.00;46.25
66176;BME280;52977;44.816;20.538;2023-04-15T09:11:33;98948.84;;;14.59;45.45
66176;BME280;52977;44.816;20.538;2023-04-15T09:13:59;98928.84;;;14.35;45.66
66176;BME280;52977;44.816;20.538;2023-04-15T09:16:26;98890.41;;;14.12;46.02
66176;BME280;52977;44.816;20.538;2023-04-15T09:18:53;98966.34;;;14.70;44.78
66176;BME280;52977;44.816;20.538;2023-04-15T09:21:18;98973.41;;;14.71;43.86
66176;BME280;52977;44.816;20.538;2023-04-15T09:23:59;98959.25;;;14.69;43.66
66176;BME280;52977;44.816;20.538;2023-04-15T09:26:36;98947.03;;;14.66;43.19
66176;BME280;52977;44.816;20.538;2023-04-15T09:29:10;98962.47;;;14.75;43.78
66176;BME280;52977;44.816;20.538;2023-04-15T09:31:38;98944.84;;;14.76;44.52
66176;BME280;52977;44.816;20.538;2023-04-15T09:34:05;98920.63;;;14.58;44.54
66176;BME280;52977;44.816;20.538;2023-04-15T09:36:52;98972.28;;;14.99;45.62
66176;BME280;52977;44.816;20.538;2023-04-15T09:39:19;98958.91;;;14.97;45.12
66176;BME280;52977;44.816;20.538;2023-04-15T09:41:45;98908.88;;;14.61;44.36
66176;BME280;52977;44.816;20.538;2023-04-15T09:44:25;98973.72;;;14.89;44.94
66176;BME280;52977;44.816;20.538;2023-04-15T09:46:51;98970.09;;;14.85;44.74
66176;BME280;52977;44.816;20.538;2023-04-15T09:49:17;98936.97;;;14.74;44.76
66176;BME280;52977;44.816;20.538;2023-04-15T09:51:43;98936.66;;;14.79;43.82
66176;BME280;52977;44.816;20.538;2023-04-15T09:54:09;98891.44;;;14.50;44.38
66176;BME280;52977;44.816;20.538;2023-04-15T09:56:37;98960.75;;;14.90;43.54
66176;BME280;52977;44.816;20.538;2023-04-15T09:59:09;98917.44;;;14.56;43.19
66176;BME280;52977;44.816;20.538;2023-04-15T10:01:35;98890.84;;;14.37;42.56
66176;BME280;52977;44.816;20.538;2023-04-15T10:04:03;98897.44;;;14.56;43.32
66176;BME280;52977;44.816;20.538;2023-04-15T10:06:29;98954.75;;;15.07;44.14
66176;BME280;52977;44.816;20.538;2023-04-15T10:08:57;98896.75;;;14.62;43.85
66176;BME280;52977;44.816;20.538;2023-04-15T10:11:25;98965.59;;;15.00;43.82
66176;BME280;52977;44.816;20.538;2023-04-15T10:13:54;98938.00;;;14.66;44.39
66176;BME280;52977;44.816;20.538;2023-04-15T10:16:22;98955.91;;;15.06;44.66
66176;BME280;52977;44.816;20.538;2023-04-15T10:18:56;98958.94;;;15.28;43.73
66176;BME280;52977;44.816;20.538;2023-04-15T10:21:23;98971.41;;;15.48;42.88
66176;BME280;52977;44.816;20.538;2023-04-15T10:23:50;98966.81;;;15.60;41.55
66176;BME280;52977;44.816;20.538;2023-04-15T10:26:16;98963.75;;;15.65;41.50
66176;BME280;52977;44.816;20.538;2023-04-15T10:28:46;98907.63;;;15.39;41.51
66176;BME280;52977;44.816;20.538;2023-04-15T10:31:13;98908.94;;;15.49;41.38
66176;BME280;52977;44.816;20.538;2023-04-15T10:33:41;98895.16;;;15.45;41.38
66176;BME280;52977;44.816;20.538;2023-04-15T10:36:08;98912.09;;;15.51;42.45
66176;BME280;52977;44.816;20.538;2023-04-15T10:38:42;98953.75;;;15.80;42.37
66176;BME280;52977;44.816;20.538;2023-04-15T10:41:16;98957.72;;;15.86;41.73
66176;BME280;52977;44.816;20.538;2023-04-15T10:44:00;98958.09;;;15.84;41.59
66176;BME280;52977;44.816;20.538;2023-04-15T10:49:09;98936.84;;;15.81;41.23
66176;BME280;52977;44.816;20.538;2023-04-15T10:51:38;98900.09;;;15.66;41.67
66176;BME280;52977;44.816;20.538;2023-04-15T10:56:51;98899.19;;;15.55;41.32
66176;BME280;52977;44.816;20.538;2023-04-15T10:59:17;98881.78;;;15.47;41.23
66176;BME280;52977;44.816;20.538;2023-04-15T11:01:53;98903.72;;;15.74;41.34
66176;BME280;52977;44.816;20.538;2023-04-15T11:04:53;98944.03;;;15.93;41.33
66176;BME280;52977;44.816;20.538;2023-04-15T11:07:56;98951.19;;;15.98;41.86
66176;BME280;52977;44.816;20.538;2023-04-15T11:13:02;98940.66;;;16.07;41.71
66176;BME280;52977;44.816;20.538;2023-04-15T11:15:32;98943.66;;;15.95;42.03
66176;BME280;52977;44.816;20.538;2023-04-15T11:18:08;98946.78;;;15.93;42.44
66176;BME280;52977;44.816;20.538;2023-04-15T11:20:36;98939.81;;;15.99;42.46
66176;BME280;52977;44.816;20.538;2023-04-15T11:23:03;98940.25;;;16.05;42.49
66176;BME280;52977;44.816;20.538;2023-04-15T11:25:32;98938.41;;;16.20;42.19
66176;BME280;52977;44.816;20.538;2023-04-15T11:28:00;98907.34;;;16.19;41.83
66176;BME280;52977;44.816;20.538;2023-04-15T11:30:29;98917.63;;;16.26;42.15
66176;BME280;52977;44.816;20.538;2023-04-15T11:33:04;98939.66;;;16.26;42.23
66176;BME280;52977;44.816;20.538;2023-04-15T11:35:30;98934.16;;;16.26;42.02
66176;BME280;52977;44.816;20.538;2023-04-15T11:37:57;98930.25;;;16.27;42.59
66176;BME280;52977;44.816;20.538;2023-04-15T11:40:28;98909.22;;;16.08;42.49
66176;BME280;52977;44.816;20.538;2023-04-15T11:43:16;98911.19;;;16.08;43.00
66176;BME280;52977;44.816;20.538;2023-04-15T11:45:55;98935.91;;;16.04;43.92
66176;BME280;52977;44.816;20.538;2023-04-15T11:48:31;98940.91;;;15.95;44.85
66176;BME280;52977;44.816;20.538;2023-04-15T11:51:01;98933.41;;;15.88;44.86
66176;BME280;52977;44.816;20.538;2023-04-15T11:53:43;98883.47;;;15.55;44.14
66176;BME280;52977;44.816;20.538;2023-04-15T11:56:17;98927.84;;;15.84;44.62
66176;BME280;52977;44.816;20.538;2023-04-15T11:58:44;98936.88;;;16.22;43.48
66176;BME280;52977;44.816;20.538;2023-04-15T12:01:11;98934.44;;;16.58;41.99
66176;BME280;52977;44.816;20.538;2023-04-15T12:03:47;98921.59;;;16.81;40.75
66176;BME280;52977;44.816;20.538;2023-04-15T12:06:24;98930.47;;;17.04;41.36
66176;BME280;52977;44.816;20.538;2023-04-15T12:11:27;98888.69;;;16.99;41.42
66176;BME280;52977;44.816;20.538;2023-04-15T12:14:01;98840.91;;;16.80;40.65
66176;BME280;52977;44.816;20.538;2023-04-15T12:16:29;98804.22;;;16.65;40.90
66176;BME280;52977;44.816;20.538;2023-04-15T12:18:56;98849.28;;;16.95;40.08
66176;BME280;52977;44.816;20.538;2023-04-15T12:21:25;98927.41;;;17.24;40.93
66176;BME280;52977;44.816;20.538;2023-04-15T12:23:52;98896.41;;;16.82;41.22
66176;BME280;52977;44.816;20.538;2023-04-15T12:26:26;98914.34;;;17.10;41.61
66176;BME280;52977;44.816;20.538;2023-04-15T12:29:04;98894.09;;;16.84;41.06
66176;BME280;52977;44.816;20.538;2023-04-15T12:31:30;98922.16;;;17.01;41.26
66176;BME280;52977;44.816;20.538;2023-04-15T12:33:58;98917.59;;;17.27;40.57
66176;BME280;52977;44.816;20.538;2023-04-15T12:36:26;98922.47;;;17.58;40.16
66176;BME280;52977;44.816;20.538;2023-04-15T12:38:53;98918.94;;;17.65;40.79
66176;BME280;52977;44.816;20.538;2023-04-15T12:41:19;98874.34;;;17.59;39.62
66176;BME280;52977;44.816;20.538;2023-04-15T12:43:46;98921.44;;;18.14;39.23
66176;BME280;52977;44.816;20.538;2023-04-15T12:46:13;98927.78;;;18.32;39.77
66176;BME280;52977;44.816;20.538;2023-04-15T12:48:40;98862.16;;;17.68;40.23
66176;BME280;52977;44.816;20.538;2023-04-15T12:51:06;98911.75;;;17.50;41.32
66176;BME280;52977;44.816;20.538;2023-04-15T12:53:32;98935.44;;;17.58;41.48
66176;BME280;52977;44.816;20.538;2023-04-15T12:55:57;98871.72;;;16.93;41.59
66176;BME280;52977;44.816;20.538;2023-04-15T12:58:23;98883.06;;;16.84;42.28
66176;BME280;52977;44.816;20.538;2023-04-15T13:00:49;98902.75;;;16.86;41.03
66176;BME280;52977;44.816;20.538;2023-04-15T13:03:15;98905.84;;;16.78;41.92